createdAt,value
2023-01-11T00:01:27.248Z,44.10
2023-01-11T00:03:59.685Z,41.17
2023-01-11T00:06:32.456Z,48.08
2023-01-11T00:09:04.889Z,45.03
2023-01-11T00:11:37.667Z,37.50
2023-01-11T00:14:10.172Z,38.25
2023-01-11T00:16:42.942Z,33.95
2023-01-11T00:19:15.361Z,39.00
2023-01-11T00:21:49.803Z,39.80
2023-01-11T00:24:22.393Z,45.08
2023-01-11T00:26:55.228Z,38.92
2023-01-11T00:29:27.697Z,37.15
2023-01-11T00:32:00.420Z,36.25
2023-01-11T00:34:32.879Z,43.70
2023-01-11T00:37:05.731Z,37.67
2023-01-11T00:39:38.202Z,42.40
2023-01-11T00:42:32.481Z,42.00
2023-01-11T00:45:24.054Z,38.00
2023-01-11T00:48:04.949Z,41.90
2023-01-11T00:50:39.517Z,38.88
2023-01-11T00:53:12.314Z,42.00
2023-01-11T00:55:44.896Z,39.28
2023-01-11T00:58:17.725Z,43.78
2023-01-11T01:00:50.232Z,43.28
2023-01-11T01:03:23.021Z,42.83
2023-01-11T01:05:56.077Z,40.53
2023-01-11T01:08:28.883Z,40.92
2023-01-11T01:11:01.410Z,51.10
2023-01-11T01:13:52.702Z,54.22
2023-01-11T01:16:25.177Z,44.58
2023-01-11T01:18:59.036Z,55.67
2023-01-11T01:21:31.540Z,49.88
2023-01-11T01:24:04.574Z,52.72
2023-01-11T01:26:37.122Z,45.28
2023-01-11T01:29:10.184Z,51.10
2023-01-11T01:31:44.005Z,50.70
2023-01-11T01:34:16.886Z,55.10
2023-01-11T01:36:49.672Z,56.28
2023-01-11T01:39:22.454Z,63.58
2023-01-11T01:41:54.943Z,53.45
2023-01-11T01:45:03.415Z,61.13
2023-01-11T01:47:50.737Z,49.33
2023-01-11T01:50:29.206Z,54.88
2023-01-11T01:53:35.912Z,57.58
2023-01-11T01:56:13.713Z,58.03
2023-01-11T01:58:51.853Z,61.72
2023-01-11T02:01:43.617Z,54.65
2023-01-11T02:04:45.535Z,63.67
2023-01-11T02:07:22.735Z,64.90
2023-01-11T02:10:04.713Z,53.67
2023-01-11T02:12:44.831Z,58.00
2023-01-11T02:15:19.772Z,65.50
2023-01-11T02:17:52.789Z,58.67
2023-01-11T02:20:58.430Z,60.20
2023-01-11T02:24:02.274Z,64.57
2023-01-11T02:26:37.717Z,59.85
2023-01-11T02:29:10.367Z,58.40
2023-01-11T02:32:03.372Z,55.80
2023-01-11T02:34:55.176Z,61.45
2023-01-11T02:38:04.884Z,56.10
2023-01-11T02:40:45.557Z,66.35
2023-01-11T02:46:34.590Z,54.75
2023-01-11T02:49:15.014Z,61.33
2023-01-11T02:51:54.424Z,52.83
2023-01-11T02:54:27.140Z,65.55
2023-01-11T02:57:02.104Z,60.65
2023-01-11T02:59:36.329Z,67.75
2023-01-11T03:02:09.789Z,63.40
2023-01-11T03:04:42.764Z,58.63
2023-01-11T03:07:39.098Z,55.72
2023-01-11T03:10:41.699Z,54.40
2023-01-11T03:13:29.607Z,56.95
2023-01-11T03:16:24.669Z,59.70
2023-01-11T03:19:03.076Z,57.17
2023-01-11T03:22:14.323Z,63.95
2023-01-11T03:25:13.159Z,59.20
2023-01-11T03:28:02.411Z,58.03
2023-01-11T03:30:47.841Z,63.03
2023-01-11T03:33:43.232Z,57.83
2023-01-11T03:36:40.221Z,56.50
2023-01-11T03:39:28.951Z,54.85
2023-01-11T03:42:04.274Z,58.42
2023-01-11T03:44:43.765Z,53.83
2023-01-11T03:47:18.703Z,53.17
2023-01-11T03:50:11.607Z,63.72
2023-01-11T03:52:45.580Z,51.55
2023-01-11T03:55:18.379Z,52.67
2023-01-11T03:57:51.610Z,57.53
2023-01-11T04:00:26.152Z,49.05
2023-01-11T04:03:00.856Z,50.35
2023-01-11T04:05:35.314Z,50.35
2023-01-11T04:08:08.031Z,47.15
2023-01-11T04:10:40.602Z,49.88
2023-01-11T04:13:13.303Z,51.28
2023-01-11T04:15:45.781Z,51.28
2023-01-11T04:18:18.975Z,55.38
2023-01-11T04:20:51.454Z,52.40
2023-01-11T04:23:24.185Z,46.95
2023-01-11T04:25:57.037Z,45.20
2023-01-11T04:28:29.745Z,39.42
2023-01-11T04:31:02.175Z,44.45
2023-01-11T04:33:34.956Z,39.78
2023-01-11T04:36:09.479Z,42.13
2023-01-11T04:38:42.298Z,45.30
2023-01-11T04:41:33.686Z,45.60
2023-01-11T04:44:06.452Z,45.70
2023-01-11T04:46:38.908Z,51.80
2023-01-11T04:49:11.645Z,46.58
2023-01-11T04:51:44.120Z,39.25
2023-01-11T04:54:17.144Z,47.75
2023-01-11T04:56:49.622Z,37.80
2023-01-11T04:59:22.383Z,37.08
2023-01-11T05:01:55.054Z,40.03
2023-01-11T05:04:27.909Z,42.17
2023-01-11T05:07:00.787Z,41.72
2023-01-11T05:09:33.986Z,34.17
2023-01-11T05:12:06.697Z,36.88
2023-01-11T05:14:39.459Z,34.17
2023-01-11T05:17:16.512Z,36.47
2023-01-11T05:19:49.301Z,31.20
2023-01-11T05:22:21.819Z,39.17
2023-01-11T05:24:54.583Z,37.80
2023-01-11T05:27:27.058Z,37.03
2023-01-11T05:29:59.848Z,42.17
2023-01-11T05:32:32.375Z,38.08
2023-01-11T05:35:05.537Z,39.75
2023-01-11T05:37:38.821Z,43.85
2023-01-11T05:40:12.309Z,41.58
2023-01-11T05:42:46.237Z,35.47
2023-01-11T05:45:35.747Z,42.22
2023-01-11T05:48:08.230Z,39.63
2023-01-11T05:50:41.075Z,33.67
2023-01-11T05:53:13.528Z,43.35
2023-01-11T05:55:57.206Z,37.50
2023-01-11T05:58:29.728Z,33.67
2023-01-11T06:01:02.510Z,37.70
2023-01-11T06:03:35.004Z,36.75
2023-01-11T06:06:08.400Z,40.90
2023-01-11T06:08:41.091Z,40.00
2023-01-11T06:11:14.988Z,34.45
2023-01-11T06:13:47.532Z,31.67
2023-01-11T06:16:21.400Z,34.38
2023-01-11T06:18:54.683Z,31.23
2023-01-11T06:21:27.599Z,33.45
2023-01-11T06:24:00.154Z,36.53
2023-01-11T06:26:32.957Z,33.33
2023-01-11T06:29:05.440Z,30.90
2023-01-11T06:31:38.206Z,38.25
2023-01-11T06:34:10.784Z,31.35
2023-01-11T06:36:43.938Z,43.75
2023-01-11T06:39:16.439Z,30.70
2023-01-11T06:41:49.220Z,31.88
2023-01-11T06:44:21.769Z,32.15
2023-01-11T06:46:54.516Z,31.17
2023-01-11T06:49:27.181Z,33.67
2023-01-11T06:51:59.971Z,33.30
2023-01-11T06:54:32.431Z,34.40
2023-01-11T06:57:05.261Z,30.67
2023-01-11T06:59:39.511Z,35.80
2023-01-11T07:02:12.484Z,29.08
2023-01-11T07:04:45.078Z,39.67
2023-01-11T07:07:18.811Z,35.00
2023-01-11T07:09:52.911Z,29.80
2023-01-11T07:12:25.686Z,35.20
2023-01-11T07:14:58.168Z,28.25
2023-01-11T07:17:30.939Z,36.38
2023-01-11T07:20:04.751Z,36.17
2023-01-11T07:22:37.546Z,40.22
2023-01-11T07:25:10.205Z,34.30
2023-01-11T07:27:42.994Z,40.63
2023-01-11T07:30:15.564Z,37.75
2023-01-11T07:32:48.306Z,44.15
2023-01-11T07:35:21.293Z,42.75
2023-01-11T07:37:54.107Z,44.53
2023-01-11T07:40:26.589Z,43.05
2023-01-11T07:43:11.568Z,52.03
2023-01-11T07:45:48.077Z,45.45
2023-01-11T07:48:26.808Z,44.03
2023-01-11T07:50:59.680Z,45.17
2023-01-11T07:53:32.456Z,41.22
2023-01-11T07:56:05.095Z,47.17
2023-01-11T07:58:37.830Z,47.22
2023-01-11T08:01:10.749Z,52.85
2023-01-11T08:03:43.625Z,46.28
2023-01-11T08:06:16.204Z,38.90
2023-01-11T08:08:48.984Z,50.25
2023-01-11T08:11:40.135Z,49.90
2023-01-11T08:14:32.778Z,45.25
2023-01-11T08:17:06.657Z,47.85
2023-01-11T08:19:39.878Z,50.90
2023-01-11T08:22:12.565Z,46.03
2023-01-11T08:24:45.410Z,45.22
2023-01-11T08:27:17.987Z,44.70
2023-01-11T08:29:50.810Z,46.60
2023-01-11T08:32:23.337Z,43.78
2023-01-11T08:34:56.136Z,44.08
2023-01-11T08:37:28.638Z,42.97
2023-01-11T08:40:01.533Z,46.65
2023-01-11T08:42:34.223Z,45.65
2023-01-11T08:45:07.414Z,40.75
2023-01-11T08:47:39.942Z,42.88
2023-01-11T08:50:12.814Z,39.30
2023-01-11T08:52:45.313Z,41.88
2023-01-11T08:55:18.970Z,46.83
2023-01-11T08:57:51.475Z,38.20
2023-01-11T09:00:24.316Z,35.65
2023-01-11T09:02:56.911Z,44.97
2023-01-11T09:05:30.218Z,34.30
2023-01-11T09:08:02.699Z,35.80
2023-01-11T09:10:35.602Z,35.05
2023-01-11T09:13:08.205Z,40.03
2023-01-11T09:15:41.059Z,37.65
2023-01-11T09:18:14.270Z,32.17
2023-01-11T09:20:47.033Z,36.50
2023-01-11T09:23:19.657Z,30.40
2023-01-11T09:25:52.439Z,31.95
2023-01-11T09:28:24.988Z,37.30
2023-01-11T09:30:57.841Z,26.88
2023-01-11T09:33:30.409Z,34.90
2023-01-11T09:36:03.268Z,30.38
2023-01-11T09:38:38.040Z,32.58
2023-01-11T09:41:24.215Z,33.63
2023-01-11T09:44:10.517Z,35.22
2023-01-11T09:46:48.288Z,30.60
2023-01-11T09:49:26.991Z,33.67
2023-01-11T09:52:24.603Z,28.33
2023-01-11T09:54:58.651Z,27.95
2023-01-11T09:57:46.213Z,28.45
2023-01-11T10:00:50.725Z,33.33
2023-01-11T10:03:49.027Z,26.83
2023-01-11T10:06:28.813Z,34.00
2023-01-11T10:18:39.684Z,29.58
2023-01-11T10:22:33.706Z,27.38
2023-01-11T10:25:16.984Z,23.48
2023-01-11T10:28:00.900Z,23.42
2023-01-11T10:30:37.038Z,20.40
2023-01-11T10:33:52.268Z,25.67
2023-01-11T10:36:52.339Z,24.92
2023-01-11T10:39:55.333Z,18.50
2023-01-11T10:42:33.662Z,20.75
2023-01-11T10:45:32.769Z,19.77
2023-01-11T10:48:15.831Z,19.33
2023-01-11T10:51:16.227Z,18.08
2023-01-11T10:54:09.721Z,18.30
2023-01-11T10:57:03.108Z,16.25
2023-01-11T11:00:01.941Z,14.73
2023-01-11T11:02:58.684Z,17.27
2023-01-11T11:05:55.288Z,14.02
2023-01-11T11:08:36.343Z,18.58
2023-01-11T11:11:49.063Z,18.15
2023-01-11T11:14:28.947Z,25.58
2023-01-11T11:17:18.487Z,14.32
2023-01-11T11:19:52.443Z,18.17
2023-01-11T11:22:25.072Z,15.80
2023-01-11T11:25:05.209Z,18.15
2023-01-11T11:27:55.713Z,13.43
2023-01-11T11:30:30.195Z,13.05
2023-01-11T11:33:16.205Z,17.23
2023-01-11T11:36:02.198Z,14.02
2023-01-11T11:38:40.334Z,14.13
2023-01-11T11:41:17.211Z,16.10
2023-01-11T11:43:49.889Z,13.25
2023-01-11T11:46:27.271Z,14.10
2023-01-11T11:49:16.851Z,16.40
2023-01-11T11:51:51.623Z,12.25
2023-01-11T11:54:26.958Z,16.80
2023-01-11T11:57:20.018Z,11.30
2023-01-11T12:00:09.312Z,15.18
2023-01-11T12:02:49.470Z,17.27
2023-01-11T12:05:22.235Z,14.45
2023-01-11T12:07:56.046Z,12.68
2023-01-11T12:10:31.969Z,13.38
2023-01-11T12:13:24.506Z,13.65
2023-01-11T12:16:00.052Z,12.38
2023-01-11T12:18:43.414Z,17.33
2023-01-11T12:21:18.234Z,15.25
2023-01-11T12:24:17.140Z,16.23
2023-01-11T12:27:27.514Z,12.60
2023-01-11T12:30:08.298Z,12.35
2023-01-11T12:33:06.905Z,11.90
2023-01-11T12:35:42.968Z,13.95
2023-01-11T12:38:21.034Z,11.48
2023-01-11T12:41:44.614Z,11.25
2023-01-11T12:44:38.109Z,12.98
2023-01-11T12:47:39.414Z,10.88
2023-01-11T12:53:53.968Z,12.45
2023-01-11T12:56:47.677Z,12.57
2023-01-11T12:59:42.022Z,11.70
2023-01-11T13:02:48.001Z,12.63
2023-01-11T13:05:47.225Z,10.70
2023-01-11T13:08:29.238Z,8.80
2023-01-11T13:11:35.611Z,10.45
2023-01-11T13:14:16.944Z,7.20
2023-01-11T13:16:55.662Z,8.63
2023-01-11T13:19:41.477Z,8.35
2023-01-11T13:22:20.552Z,11.73
2023-01-11T13:24:52.992Z,10.80
2023-01-11T13:27:28.831Z,10.52
2023-01-11T13:30:02.485Z,9.15
2023-01-11T13:32:40.213Z,12.10
2023-01-11T13:35:24.660Z,13.80
2023-01-11T13:38:25.321Z,12.93
2023-01-11T13:41:07.930Z,11.38
2023-01-11T13:43:55.693Z,9.80
2023-01-11T13:46:51.600Z,11.20
2023-01-11T13:49:45.341Z,12.52
2023-01-11T13:53:03.317Z,11.90
2023-01-11T13:55:58.927Z,13.82
2023-01-11T13:58:57.257Z,18.35
2023-01-11T14:01:36.469Z,12.40
2023-01-11T14:04:22.951Z,13.90
2023-01-11T14:07:03.021Z,11.43
2023-01-11T14:10:36.904Z,17.02
2023-01-11T14:13:35.359Z,9.43
2023-01-11T14:16:28.221Z,15.80
2023-01-11T14:19:14.599Z,15.30
2023-01-11T14:22:04.807Z,19.05
2023-01-11T14:24:46.414Z,16.70
2023-01-11T14:28:15.050Z,17.45
2023-01-11T14:31:23.975Z,15.75
2023-01-11T14:34:26.107Z,14.98
2023-01-11T14:37:13.231Z,13.20
2023-01-11T14:39:54.135Z,12.73
2023-01-11T14:42:36.050Z,16.92
2023-01-11T14:45:34.891Z,14.45
2023-01-11T14:48:16.448Z,15.13
2023-01-11T14:50:57.609Z,14.60
2023-01-11T14:53:36.728Z,16.58
2023-01-11T14:56:42.652Z,19.23
2023-01-11T14:59:31.582Z,22.33
2023-01-11T15:02:04.254Z,16.83
2023-01-11T15:05:06.509Z,17.15
2023-01-11T15:07:41.366Z,14.00
2023-01-11T15:10:29.139Z,14.95
2023-01-11T15:13:07.514Z,17.45
2023-01-11T15:15:58.973Z,20.73
2023-01-11T15:18:31.772Z,15.80
2023-01-11T15:21:06.377Z,17.13
2023-01-11T15:23:50.542Z,16.55
2023-01-11T15:26:25.953Z,17.42
2023-01-11T15:29:00.464Z,17.50
2023-01-11T15:31:39.255Z,17.48
2023-01-11T15:34:22.437Z,19.67
2023-01-11T15:37:05.505Z,16.83
2023-01-11T15:39:56.249Z,18.95
2023-01-11T15:42:41.496Z,18.75
2023-01-11T15:46:17.347Z,18.02
2023-01-11T15:49:18.032Z,16.58
2023-01-11T15:52:15.266Z,18.70
2023-01-11T15:55:24.967Z,15.60
2023-01-11T15:58:16.175Z,19.20
2023-01-11T16:01:13.963Z,15.45
2023-01-11T16:03:49.480Z,18.83
2023-01-11T16:06:37.690Z,18.30
2023-01-11T16:09:10.164Z,17.05
2023-01-11T16:12:07.408Z,22.55
2023-01-11T16:15:17.533Z,16.98
2023-01-11T16:17:51.354Z,16.05
2023-01-11T16:20:28.939Z,23.02
2023-01-11T16:23:04.981Z,17.70
2023-01-11T16:25:40.978Z,19.23
2023-01-11T16:28:18.069Z,20.27
2023-01-11T16:31:03.857Z,19.52
2023-01-11T16:33:36.726Z,18.58
2023-01-11T16:36:23.304Z,16.20
2023-01-11T16:39:04.900Z,24.45
2023-01-11T16:41:46.852Z,23.00
2023-01-11T16:44:43.740Z,17.77
2023-01-11T16:47:18.273Z,21.95
2023-01-11T16:50:21.623Z,22.45
2023-01-11T16:52:56.460Z,15.88
2023-01-11T16:55:44.525Z,22.10
2023-01-11T16:58:31.057Z,19.90
2023-01-11T17:01:11.153Z,22.45
2023-01-11T17:03:52.952Z,26.40
2023-01-11T17:06:26.323Z,19.63
2023-01-11T17:09:00.078Z,21.92
2023-01-11T17:11:45.430Z,17.63
2023-01-11T17:14:58.826Z,19.95
2023-01-11T17:17:37.141Z,24.50
2023-01-11T17:20:36.835Z,28.67
2023-01-11T17:23:16.143Z,16.73
2023-01-11T17:25:55.845Z,25.15
2023-01-11T17:28:29.275Z,21.33
2023-01-11T17:31:02.683Z,23.92
2023-01-11T17:33:35.442Z,23.42
2023-01-11T17:36:08.525Z,24.67
2023-01-11T17:38:42.283Z,25.77
2023-01-11T17:41:35.129Z,22.70
2023-01-11T17:44:39.989Z,24.05
2023-01-11T17:47:13.130Z,22.42
2023-01-11T17:49:50.532Z,22.50
2023-01-11T17:52:25.589Z,23.05
2023-01-11T17:55:22.905Z,27.35
2023-01-11T17:58:18.846Z,21.50
2023-01-11T18:01:19.889Z,21.80
2023-01-11T18:03:57.036Z,23.05
2023-01-11T18:06:40.471Z,28.55
2023-01-11T18:09:31.623Z,23.55
2023-01-11T18:12:21.632Z,25.02
2023-01-11T18:14:59.623Z,29.42
2023-01-11T18:17:35.173Z,22.30
2023-01-11T18:20:22.420Z,23.30
2023-01-11T18:23:14.077Z,26.60
2023-01-11T18:25:47.118Z,25.42
2023-01-11T18:28:28.782Z,26.85
2023-01-11T18:31:02.009Z,25.77
2023-01-11T18:33:35.181Z,25.15
2023-01-11T18:36:22.708Z,25.88
2023-01-11T18:38:55.939Z,27.73
2023-01-11T18:41:46.962Z,26.40
2023-01-11T18:44:19.747Z,26.33
2023-01-11T18:46:52.272Z,27.63
2023-01-11T18:49:25.012Z,30.98
2023-01-11T18:51:57.601Z,28.42
2023-01-11T18:54:30.382Z,29.75
2023-01-11T18:57:03.172Z,28.50
2023-01-11T18:59:36.750Z,25.90
2023-01-11T19:02:25.950Z,22.42
2023-01-11T19:04:58.896Z,25.83
2023-01-11T19:07:31.378Z,26.70
2023-01-11T19:10:05.127Z,30.67
2023-01-11T19:12:37.601Z,23.30
2023-01-11T19:15:12.178Z,23.70
2023-01-11T19:17:44.736Z,29.80
2023-01-11T19:20:17.688Z,28.35
2023-01-11T19:22:50.246Z,28.73
2023-01-11T19:25:23.024Z,26.85
2023-01-11T19:27:55.653Z,29.00
2023-01-11T19:30:28.532Z,27.02
2023-01-11T19:33:01.074Z,29.75
2023-01-11T19:35:33.840Z,30.38
2023-01-11T19:38:06.336Z,25.92
2023-01-11T19:40:39.104Z,30.33
2023-01-11T19:43:11.880Z,33.55
2023-01-11T19:45:44.705Z,35.17
2023-01-11T19:48:17.141Z,32.25
2023-01-11T19:51:01.859Z,30.13
2023-01-11T19:53:34.956Z,32.88
2023-01-11T19:56:09.261Z,35.42
2023-01-11T19:58:41.769Z,28.38
2023-01-11T20:01:14.668Z,29.00
2023-01-11T20:03:47.356Z,33.78
2023-01-11T20:06:20.067Z,33.78
2023-01-11T20:08:52.694Z,32.45
2023-01-11T20:11:25.992Z,33.38
2023-01-11T20:13:58.561Z,31.55
2023-01-11T20:16:31.394Z,34.67
2023-01-11T20:19:04.090Z,33.90
2023-01-11T20:21:37.298Z,33.22
2023-01-11T20:24:13.522Z,30.38
2023-01-11T20:26:46.667Z,33.55
2023-01-11T20:29:19.259Z,30.67
2023-01-11T20:31:54.531Z,28.83
2023-01-11T20:34:26.985Z,30.98
2023-01-11T20:36:59.769Z,32.17
2023-01-11T20:39:32.230Z,28.00
2023-01-11T20:42:05.002Z,28.98
2023-01-11T20:44:37.469Z,26.05
2023-01-11T20:47:10.195Z,32.97
2023-01-11T20:49:42.687Z,27.17
2023-01-11T20:52:15.455Z,30.15
2023-01-11T20:54:47.972Z,29.00
2023-01-11T20:57:20.755Z,27.98
2023-01-11T20:59:54.550Z,24.75
2023-01-11T21:02:27.337Z,30.30
2023-01-11T21:04:59.974Z,31.00
2023-01-11T21:07:33.457Z,23.65
2023-01-11T21:10:06.530Z,27.88
2023-01-11T21:12:39.315Z,27.40
2023-01-11T21:15:11.932Z,30.83
2023-01-11T21:17:44.744Z,26.45
2023-01-11T21:20:17.782Z,26.33
2023-01-11T21:22:50.521Z,28.00
2023-01-11T21:25:23.004Z,27.58
2023-01-11T21:27:55.856Z,22.55
2023-01-11T21:30:28.324Z,29.67
2023-01-11T21:33:01.068Z,23.67
2023-01-11T21:35:34.569Z,26.23
2023-01-11T21:38:07.466Z,22.50
2023-01-11T21:40:39.965Z,18.80
2023-01-11T21:43:14.766Z,26.48
2023-01-11T21:45:55.707Z,21.45
2023-01-11T21:48:28.878Z,23.55
2023-01-11T21:51:01.854Z,25.50
2023-01-11T21:53:34.752Z,24.35
2023-01-11T21:56:08.476Z,25.33
2023-01-11T21:58:41.272Z,23.67
2023-01-11T22:01:13.975Z,18.55
2023-01-11T22:03:46.829Z,22.33
2023-01-11T22:06:19.369Z,24.05
2023-01-11T22:08:52.216Z,23.38
2023-01-11T22:11:24.688Z,19.80
2023-01-11T22:13:57.405Z,23.92
2023-01-11T22:16:31.601Z,27.25
2023-01-11T22:19:09.015Z,22.33
2023-01-11T22:21:41.726Z,26.60
2023-01-11T22:24:14.515Z,24.58
2023-01-11T22:26:47.078Z,25.17
2023-01-11T22:29:20.086Z,28.10
2023-01-11T22:31:57.028Z,23.17
2023-01-11T22:34:30.168Z,25.15
2023-01-11T22:37:02.685Z,29.27
2023-01-11T22:39:37.896Z,29.10
2023-01-11T22:42:10.456Z,28.60
2023-01-11T22:44:43.193Z,23.10
2023-01-11T22:47:15.710Z,28.55
2023-01-11T22:49:53.817Z,27.70
2023-01-11T22:52:26.361Z,29.35
2023-01-11T22:54:59.248Z,30.85
2023-01-11T22:57:32.310Z,30.67
2023-01-11T23:00:06.263Z,29.95
2023-01-11T23:02:38.839Z,30.80
2023-01-11T23:05:11.941Z,27.90
2023-01-11T23:07:44.481Z,24.77
2023-01-11T23:10:17.379Z,24.30
2023-01-11T23:13:08.153Z,31.15
2023-01-11T23:15:41.034Z,27.05
2023-01-11T23:18:13.582Z,29.77
2023-01-11T23:20:46.429Z,33.78
2023-01-11T23:23:18.918Z,29.20
2023-01-11T23:25:54.564Z,30.73
2023-01-11T23:28:29.878Z,31.08
2023-01-11T23:31:18.687Z,30.73
2023-01-11T23:33:53.869Z,32.47
2023-01-11T23:36:33.275Z,30.60
2023-01-11T23:39:07.589Z,34.95
2023-01-11T23:41:59.033Z,28.88
2023-01-11T23:44:31.922Z,39.42
2023-01-11T23:47:24.807Z,34.95
2023-01-11T23:50:02.272Z,35.10
2023-01-11T23:52:35.161Z,33.45
2023-01-11T23:55:08.927Z,32.72
2023-01-11T23:58:01.630Z,34.30
